Time;durP1;ratioP1;P1;durP2;ratioP2;P2;SDS_P1;SDS_P2;PMS_P1;PMS_P2;Temp;Humidity;BMP_temperature;BMP_pressure;BME280_temperature;BME280_humidity;BME280_pressure;Samples;Min_cycle;Max_cycle;Signal;HPM_P1;HPM_P2
2021/12/06 00:01:55;;;;;;;36.22;26.15;;;2.60;99.90;;;;;;4950306;28;89148;-34
2021/12/06 00:04:25;;;;;;;32.25;26.83;;;2.60;99.90;;;;;;4949022;28;91386;-34
2021/12/06 00:06:55;;;;;;;33.58;27.88;;;2.50;99.90;;;;;;4949421;28;89330;-34
2021/12/06 00:09:24;;;;;;;32.78;27.45;;;2.50;99.90;;;;;;4949926;28;87771;-34
2021/12/06 00:11:56;;;;;;;33.50;23.90;;;2.50;99.90;;;;;;4949003;28;89304;-34
2021/12/06 00:14:28;;;;;;;39.88;30.40;;;2.60;99.90;;;;;;4949154;28;88939;-35
2021/12/06 00:16:56;;;;;;;44.17;33.33;;;2.50;99.90;;;;;;4950032;28;89564;-35
2021/12/06 00:19:22;;;;;;;38.40;28.30;;;2.50;99.90;;;;;;4949547;28;88145;-33
2021/12/06 00:21:48;;;;;;;43.38;29.63;;;2.60;99.90;;;;;;4965372;28;90455;-33
2021/12/06 00:24:13;;;;;;;39.22;28.83;;;2.60;99.90;;;;;;4949626;28;88690;-34
2021/12/06 00:26:39;;;;;;;44.30;32.17;;;2.60;99.90;;;;;;4949553;28;87721;-35
2021/12/06 00:29:04;;;;;;;46.95;34.10;;;2.60;99.90;;;;;;4949575;28;89082;-34
2021/12/06 00:31:33;;;;;;;44.65;34.20;;;2.40;99.90;;;;;;4949030;28;88334;-34
2021/12/06 00:34:04;;;;;;;43.10;31.77;;;2.50;99.90;;;;;;4949679;28;88485;-34
2021/12/06 00:36:32;;;;;;;45.33;31.67;;;2.50;99.90;;;;;;4948493;28;88691;-33
2021/12/06 00:39:00;;;;;;;45.40;34.58;;;2.50;99.90;;;;;;4949755;28;88257;-34
2021/12/06 00:41:25;;;;;;;46.00;32.95;;;2.50;99.90;;;;;;4948840;28;89613;-34
2021/12/06 00:43:51;;;;;;;43.45;30.60;;;2.50;99.90;;;;;;4948961;28;88687;-34
2021/12/06 00:46:18;;;;;;;43.83;30.88;;;2.50;99.90;;;;;;4949011;28;88898;-34
2021/12/06 00:48:43;;;;;;;43.45;32.70;;;2.60;99.90;;;;;;4948572;28;88061;-33
2021/12/06 00:51:11;;;;;;;49.60;33.33;;;2.60;99.90;;;;;;4964829;28;89046;-34
2021/12/06 00:53:37;;;;;;;47.95;32.30;;;2.50;99.90;;;;;;4948163;28;91037;-34
2021/12/06 00:56:03;;;;;;;41.22;32.88;;;2.50;99.90;;;;;;4949206;28;91077;-34
2021/12/06 00:58:29;;;;;;;45.42;34.63;;;2.60;99.90;;;;;;4949298;28;88678;-35
2021/12/06 01:00:55;;;;;;;43.25;32.35;;;2.60;99.90;;;;;;4948961;28;89284;-34
2021/12/06 01:03:27;;;;;;;37.65;28.85;;;2.50;99.90;;;;;;4967743;28;89807;-34
2021/12/06 01:05:53;;;;;;;36.75;26.10;;;2.60;99.90;;;;;;4952756;28;88776;-34
2021/12/06 01:08:19;;;;;;;42.35;30.60;;;2.60;99.90;;;;;;4936384;28;87497;-34
2021/12/06 01:10:46;;;;;;;40.53;33.13;;;2.60;99.90;;;;;;4952499;28;89504;-34
2021/12/06 01:13:12;;;;;;;42.50;31.58;;;2.60;99.90;;;;;;4952968;28;89111;-34
2021/12/06 01:15:38;;;;;;;47.22;33.80;;;2.50;99.90;;;;;;4952321;28;87242;-34
2021/12/06 01:20:42;;;;;;;50.20;35.97;;;2.50;99.90;;;;;;4950548;28;87845;-35
2021/12/06 01:23:12;;;;;;;46.03;34.97;;;2.50;99.90;;;;;;4951275;28;88656;-34
2021/12/06 01:25:50;;;;;;;52.58;36.58;;;2.40;99.90;;;;;;4952161;28;89047;-34
2021/12/06 01:41:28;;;;;;;47.00;34.17;;;2.40;99.90;;;;;;4952348;28;89150;-34
2021/12/06 01:44:05;;;;;;;46.47;34.33;;;2.40;99.90;;;;;;4952155;28;89441;-34
2021/12/06 01:46:32;;;;;;;47.53;34.80;;;2.40;99.90;;;;;;4952039;28;88119;-33
2021/12/06 01:48:58;;;;;;;54.28;35.35;;;2.40;99.90;;;;;;4952214;28;87198;-34
2021/12/06 01:51:24;;;;;;;48.85;34.10;;;2.40;99.90;;;;;;4952603;28;88902;-34
2021/12/06 01:53:50;;;;;;;41.45;31.67;;;2.40;99.90;;;;;;4951297;28;88953;-33
2021/12/06 01:56:16;;;;;;;45.40;33.47;;;2.50;99.90;;;;;;4951695;28;88247;-34
2021/12/06 01:58:44;;;;;;;53.22;36.70;;;2.60;99.90;;;;;;4952289;28;88623;-34
2021/12/06 02:01:10;;;;;;;48.67;35.83;;;2.60;99.90;;;;;;4951845;28;89291;-34
2021/12/06 02:03:37;;;;;;;50.25;34.90;;;2.50;99.90;;;;;;4951634;28;89065;-34
2021/12/06 02:06:04;;;;;;;58.10;39.67;;;2.50;99.90;;;;;;4952525;28;88778;-34
2021/12/06 02:08:29;;;;;;;54.30;36.17;;;2.50;99.90;;;;;;4951106;28;89281;-34
2021/12/06 02:11:00;;;;;;;54.88;38.22;;;2.50;99.90;;;;;;4951459;28;89033;-34
2021/12/06 02:13:33;;;;;;;54.78;36.88;;;2.50;99.90;;;;;;4950376;28;88241;-34
2021/12/06 02:16:01;;;;;;;53.45;38.88;;;2.50;99.90;;;;;;4951216;28;88290;-34
2021/12/06 02:18:40;;;;;;;54.07;36.53;;;2.50;99.90;;;;;;4934415;28;88049;-34
2021/12/06 02:21:31;;;;;;;49.88;36.00;;;2.50;99.90;;;;;;4950620;28;89510;-33
2021/12/06 02:24:01;;;;;;;52.42;38.10;;;2.50;99.90;;;;;;4950979;28;88750;-34
2021/12/06 02:26:27;;;;;;;57.70;39.10;;;2.50;99.90;;;;;;4952227;28;88494;-34
2021/12/06 02:28:53;;;;;;;51.88;36.45;;;2.50;99.90;;;;;;4950995;28;87325;-31
2021/12/06 02:31:21;;;;;;;50.65;36.50;;;2.50;99.90;;;;;;4952339;28;88330;-34
2021/12/06 02:33:49;;;;;;;58.38;38.80;;;2.50;99.90;;;;;;4950999;28;90059;-33
2021/12/06 02:36:16;;;;;;;53.60;39.00;;;2.60;99.90;;;;;;4927839;28;89436;-33
2021/12/06 02:38:42;;;;;;;60.85;41.10;;;2.60;99.90;;;;;;4951572;28;88021;-34
2021/12/06 02:41:08;;;;;;;64.22;42.42;;;2.50;99.90;;;;;;4951425;28;89283;-34
2021/12/06 02:43:36;;;;;;;53.03;37.30;;;2.50;99.90;;;;;;4934539;28;88886;-34
2021/12/06 02:46:03;;;;;;;52.45;33.50;;;2.50;99.90;;;;;;4951067;28;87174;-34
2021/12/06 02:48:29;;;;;;;63.90;41.40;;;2.60;99.90;;;;;;4951692;28;89126;-35
2021/12/06 02:50:58;;;;;;;50.42;36.97;;;2.60;99.90;;;;;;4951150;28;89663;-34
2021/12/06 02:53:25;;;;;;;61.60;41.60;;;2.60;99.90;;;;;;4950990;28;88230;-34
2021/12/06 02:55:54;;;;;;;62.90;41.33;;;2.50;99.90;;;;;;4951020;28;88213;-34
2021/12/06 02:58:55;;;;;;;58.83;39.53;;;2.60;99.90;;;;;;4949435;28;88007;-33
2021/12/06 03:01:36;;;;;;;63.40;41.03;;;2.60;99.90;;;;;;4950463;28;89673;-34
2021/12/06 03:04:03;;;;;;;57.60;42.58;;;2.60;99.90;;;;;;4950826;28;89067;-32
2021/12/06 03:06:30;;;;;;;60.28;42.67;;;2.60;99.90;;;;;;4950576;28;90170;-34
2021/12/06 03:09:07;;;;;;;57.20;36.20;;;2.60;99.90;;;;;;4950899;28;88203;-35
2021/12/06 03:11:38;;;;;;;58.45;40.00;;;2.60;99.90;;;;;;4949596;28;90861;-33
2021/12/06 03:14:09;;;;;;;61.28;41.15;;;2.60;99.90;;;;;;4949893;28;88513;-32
2021/12/06 03:16:35;;;;;;;57.10;36.03;;;2.60;99.90;;;;;;4950727;28;88683;-34
2021/12/06 03:19:01;;;;;;;62.95;41.05;;;2.60;99.90;;;;;;4950659;28;87550;-35
2021/12/06 03:21:27;;;;;;;62.20;44.60;;;2.60;99.90;;;;;;4950852;28;89332;-33
2021/12/06 03:23:56;;;;;;;66.68;43.92;;;2.60;99.90;;;;;;4948795;28;89294;-34
2021/12/06 03:26:22;;;;;;;65.63;41.13;;;2.60;99.90;;;;;;4950074;28;89007;-34
2021/12/06 03:28:47;;;;;;;62.47;43.15;;;2.60;99.90;;;;;;4951284;28;88839;-34
2021/12/06 03:31:15;;;;;;;64.72;43.35;;;2.70;99.90;;;;;;4950484;28;88991;-33
2021/12/06 03:33:44;;;;;;;59.88;37.00;;;2.60;99.90;;;;;;4949109;28;88568;-34
2021/12/06 03:36:11;;;;;;;61.60;42.88;;;2.60;99.90;;;;;;4949808;28;88585;-34
2021/12/06 03:38:38;;;;;;;61.97;42.95;;;2.70;99.90;;;;;;4933879;28;88016;-34
2021/12/06 03:41:06;;;;;;;60.90;40.83;;;2.70;99.90;;;;;;4950290;28;87920;-32
2021/12/06 03:43:33;;;;;;;63.00;42.95;;;2.70;99.90;;;;;;4949846;28;88384;-33
2021/12/06 03:45:59;;;;;;;69.60;45.00;;;2.80;99.90;;;;;;4950042;28;90461;-34
2021/12/06 03:48:24;;;;;;;69.18;46.35;;;2.70;99.90;;;;;;4949626;28;88155;-33
2021/12/06 03:50:50;;;;;;;76.22;48.10;;;2.60;99.90;;;;;;4949316;28;89328;-33
2021/12/06 03:53:17;;;;;;;67.43;44.88;;;2.60;99.90;;;;;;4950757;28;88863;-34
2021/12/06 03:55:43;;;;;;;75.20;49.42;;;2.60;99.90;;;;;;4950283;28;88374;-34
2021/12/06 03:58:09;;;;;;;68.28;42.53;;;2.60;99.90;;;;;;4949806;28;87191;-34
2021/12/06 04:00:35;;;;;;;77.07;46.47;;;2.70;99.90;;;;;;4950316;28;89097;-33
2021/12/06 04:03:01;;;;;;;68.20;44.25;;;2.60;99.90;;;;;;4949422;28;88674;-32
2021/12/06 04:05:28;;;;;;;71.78;45.00;;;2.60;99.90;;;;;;4949496;28;88877;-34
2021/12/06 04:07:54;;;;;;;74.28;47.92;;;2.60;99.90;;;;;;4951006;28;89112;-34
2021/12/06 04:10:20;;;;;;;79.07;46.70;;;2.60;99.90;;;;;;4949821;28;89245;-34
2021/12/06 04:12:45;;;;;;;65.05;44.10;;;2.60;99.90;;;;;;4949633;28;89087;-34
2021/12/06 04:15:14;;;;;;;72.85;47.38;;;2.70;99.90;;;;;;4949076;28;90846;-32
2021/12/06 04:17:40;;;;;;;;;;;2.70;99.90;;;;;;4950113;28;88830;-34
2021/12/06 04:20:09;;;;;;;79.22;47.38;;;2.70;99.90;;;;;;4934879;28;88662;-34
2021/12/06 04:22:37;;;;;;;75.22;45.90;;;2.60;99.90;;;;;;4949827;28;88189;-34
2021/12/06 04:25:04;;;;;;;72.75;46.40;;;2.60;99.90;;;;;;4950022;28;88421;-34
2021/12/06 04:27:30;;;;;;;66.63;45.75;;;2.60;99.90;;;;;;4949722;28;87414;-35
2021/12/06 04:29:56;;;;;;;82.25;47.53;;;2.60;99.90;;;;;;4949637;28;89680;-34
2021/12/06 04:32:22;;;;;;;72.97;44.72;;;2.60;99.90;;;;;;4950110;28;87082;-34
2021/12/06 04:34:48;;;;;;;67.63;45.60;;;2.60;99.90;;;;;;4948032;28;87327;-33
2021/12/06 04:37:14;;;;;;;69.70;47.55;;;2.70;99.90;;;;;;4949093;28;87794;-34
2021/12/06 04:39:40;;;;;;;71.63;44.83;;;2.70;99.90;;;;;;4948672;28;89190;-34
2021/12/06 04:42:06;;;;;;;63.47;40.80;;;2.60;99.90;;;;;;4949318;28;89013;-34
2021/12/06 04:44:32;;;;;;;63.05;39.28;;;2.70;99.90;;;;;;4948400;28;89127;-34
2021/12/06 04:46:58;;;;;;;70.90;46.08;;;2.80;99.90;;;;;;4949719;28;88499;-34
2021/12/06 04:49:26;;;;;;;73.65;44.20;;;2.80;99.90;;;;;;4949565;28;89304;-33
2021/12/06 04:51:54;;;;;;;59.47;38.22;;;2.80;99.90;;;;;;4949449;28;89204;-34
2021/12/06 04:54:24;;;;;;;60.78;34.72;;;2.80;99.90;;;;;;4950756;28;87184;-34
2021/12/06 04:56:59;;;;;;;78.10;47.03;;;2.80;99.90;;;;;;4949430;28;88236;-33
2021/12/06 04:59:36;;;;;;;66.82;43.35;;;2.80;99.90;;;;;;4947618;28;88121;-32
2021/12/06 05:02:09;;;;;;;65.50;43.97;;;2.80;99.90;;;;;;4948721;28;89618;-34
2021/12/06 05:04:37;;;;;;;76.40;46.08;;;2.80;99.90;;;;;;4948296;28;89118;-34
2021/12/06 05:07:11;;;;;;;70.43;45.38;;;2.70;99.90;;;;;;4949305;28;87272;-34
2021/12/06 05:09:40;;;;;;;70.25;42.83;;;2.80;99.90;;;;;;4949312;28;88019;-35
2021/12/06 05:12:07;;;;;;;61.75;38.30;;;2.80;99.90;;;;;;4949172;28;89077;-34
2021/12/06 05:14:33;;;;;;;70.63;42.57;;;2.90;99.90;;;;;;4948095;28;88880;-34
2021/12/06 05:17:00;;;;;;;69.80;43.55;;;2.80;99.90;;;;;;4949857;28;86985;-34
2021/12/06 05:19:25;;;;;;;76.88;44.67;;;2.70;99.90;;;;;;4948550;28;89902;-32
2021/12/06 05:21:52;;;;;;;61.03;38.72;;;2.70;99.90;;;;;;4948473;28;88284;-34
2021/12/06 05:24:18;;;;;;;61.75;41.28;;;2.70;99.90;;;;;;4948538;28;89112;-33
2021/12/06 05:26:45;;;;;;;58.78;39.20;;;2.70;99.90;;;;;;4948960;28;87452;-32
2021/12/06 05:29:14;;;;;;;57.30;39.70;;;2.70;99.90;;;;;;4948786;28;89198;-34
2021/12/06 05:31:41;;;;;;;;;;;2.70;99.90;;;;;;4949202;28;87710;-34
2021/12/06 05:34:14;;;;;;;51.28;36.42;;;2.80;99.90;;;;;;4949935;28;88023;-33
2021/12/06 05:36:40;;;;;;;61.22;41.10;;;2.70;99.90;;;;;;4948882;28;88516;-33
2021/12/06 05:39:06;;;;;;;62.72;40.83;;;2.70;99.90;;;;;;4949379;28;89881;-33
2021/12/06 05:41:35;;;;;;;58.63;39.47;;;2.70;99.90;;;;;;4948429;28;88740;-34
2021/12/06 05:44:03;;;;;;;59.63;38.53;;;2.70;99.90;;;;;;4947956;28;88188;-34
2021/12/06 05:46:29;;;;;;;65.85;40.95;;;2.70;99.90;;;;;;4948490;28;88162;-33
2021/12/06 05:48:54;;;;;;;55.33;34.75;;;2.70;99.90;;;;;;4950948;28;89128;-34
2021/12/06 05:51:20;;;;;;;66.78;39.78;;;2.90;99.90;;;;;;4951541;28;90082;-34
2021/12/06 05:53:45;;;;;;;61.20;37.63;;;3.00;99.90;;;;;;4951090;28;90204;-35
2021/12/06 05:56:11;;;;;;;74.93;43.72;;;2.90;99.90;;;;;;4951855;28;87743;-34
2021/12/06 05:58:37;;;;;;;66.72;42.67;;;2.80;99.90;;;;;;4950793;28;89233;-34
2021/12/06 06:01:04;;;;;;;59.45;39.22;;;2.70;99.90;;;;;;4951321;28;88988;-34
2021/12/06 06:03:29;;;;;;;66.10;41.80;;;2.70;99.90;;;;;;4946266;28;88291;-36
2021/12/06 06:05:55;;;;;;;57.78;39.70;;;2.70;99.90;;;;;;4932109;28;88979;-34
2021/12/06 06:08:22;;;;;;;74.05;49.38;;;2.70;99.90;;;;;;4932759;28;88347;-34
2021/12/06 06:10:50;;;;;;;67.03;41.17;;;2.80;99.90;;;;;;4931338;28;89419;-33
2021/12/06 06:13:16;;;;;;;72.55;42.75;;;2.80;99.90;;;;;;4931889;28;87390;-34
2021/12/06 06:15:42;;;;;;;62.95;39.33;;;2.90;99.90;;;;;;4931281;28;89372;-34
2021/12/06 06:18:08;;;;;;;61.42;41.33;;;2.90;99.90;;;;;;4932224;28;89857;-34
2021/12/06 06:20:36;;;;;;;56.28;39.17;;;2.90;99.90;;;;;;4931944;28;88442;-34
2021/12/06 06:23:02;;;;;;;64.70;41.75;;;2.90;99.90;;;;;;4932451;28;88791;-34
2021/12/06 06:25:29;;;;;;;61.83;36.58;;;2.80;99.90;;;;;;4932297;28;88833;-34
2021/12/06 06:27:55;;;;;;;62.40;40.83;;;2.80;99.90;;;;;;4931082;28;89194;-34
2021/12/06 06:30:21;;;;;;;62.55;43.55;;;2.80;99.90;;;;;;4931530;28;88101;-33
2021/12/06 06:32:47;;;;;;;64.95;41.35;;;2.70;99.90;;;;;;4931597;28;89073;-33
2021/12/06 06:35:15;;;;;;;62.75;39.10;;;2.70;99.90;;;;;;4931616;28;88505;-34
2021/12/06 06:37:41;;;;;;;62.97;37.65;;;2.90;99.90;;;;;;4931854;28;89244;-33
2021/12/06 06:40:08;;;;;;;64.32;37.47;;;2.90;99.90;;;;;;4931099;28;90171;-34
2021/12/06 06:42:34;;;;;;;58.25;36.17;;;3.00;99.90;;;;;;4931619;28;89666;-33
2021/12/06 06:45:00;;;;;;;54.67;33.25;;;3.00;99.90;;;;;;4915204;28;88426;-34
2021/12/06 06:47:26;;;;;;;56.47;35.25;;;3.00;99.90;;;;;;4931216;28;89286;-34
2021/12/06 06:49:52;;;;;;;51.00;36.90;;;2.90;99.90;;;;;;4930662;28;88771;-34
2021/12/06 06:52:17;;;;;;;56.13;34.67;;;2.90;99.90;;;;;;4931210;28;88432;-34
2021/12/06 06:54:43;;;;;;;58.67;35.45;;;2.80;99.90;;;;;;4931546;28;87490;-34
2021/12/06 06:57:09;;;;;;;51.20;31.58;;;2.80;99.90;;;;;;4932630;28;88657;-34
2021/12/06 06:59:35;;;;;;;54.17;36.38;;;2.80;99.90;;;;;;4931578;28;88424;-33
2021/12/06 07:02:01;;;;;;;62.97;38.38;;;2.90;99.90;;;;;;4931862;28;88645;-34
2021/12/06 07:04:27;;;;;;;52.08;34.08;;;2.90;99.90;;;;;;4930890;28;88129;-34
2021/12/06 07:06:53;;;;;;;57.72;35.58;;;2.80;99.90;;;;;;4930243;28;89868;-34
2021/12/06 07:09:19;;;;;;;50.13;33.83;;;2.70;99.90;;;;;;4932858;28;88948;-34
2021/12/06 07:11:46;;;;;;;52.17;33.85;;;2.70;99.90;;;;;;4925274;28;89000;-34
2021/12/06 07:14:13;;;;;;;50.58;32.58;;;2.70;99.90;;;;;;4973136;28;88400;-34
2021/12/06 07:16:40;;;;;;;52.50;33.40;;;2.70;99.90;;;;;;4955472;28;88800;-34
2021/12/06 07:19:06;;;;;;;55.83;33.92;;;2.70;99.90;;;;;;4949531;28;89851;-34
2021/12/06 07:21:31;;;;;;;52.80;32.58;;;2.70;99.90;;;;;;4950166;28;88427;-34
2021/12/06 07:23:57;;;;;;;52.47;35.15;;;2.80;99.90;;;;;;4951624;28;87459;-34
2021/12/06 07:26:23;;;;;;;46.35;31.60;;;2.80;99.90;;;;;;4950143;28;90420;-34
2021/12/06 07:28:51;;;;;;;53.70;34.30;;;2.70;99.90;;;;;;4949583;28;89682;-34
2021/12/06 07:31:17;;;;;;;47.07;31.27;;;2.90;99.90;;;;;;4950215;28;89348;-34
2021/12/06 07:33:46;;;;;;;55.92;34.85;;;2.80;99.90;;;;;;4950465;28;87296;-34
2021/12/06 07:36:12;;;;;;;50.15;33.35;;;2.70;99.90;;;;;;4949653;28;90671;-34
2021/12/06 07:38:38;;;;;;;53.90;34.85;;;2.70;99.90;;;;;;4950492;28;90302;-34
2021/12/06 07:41:10;;;;;;;53.28;33.35;;;2.70;99.90;;;;;;4949505;28;89580;-32
2021/12/06 07:43:37;;;;;;;47.90;34.50;;;2.80;99.90;;;;;;4950626;28;87942;-34
2021/12/06 07:46:04;;;;;;;57.83;36.15;;;2.70;99.90;;;;;;4950206;28;89482;-34
2021/12/06 07:48:29;;;;;;;44.35;31.55;;;2.70;99.90;;;;;;4949832;28;88804;-35
2021/12/06 07:50:56;;;;;;;57.70;33.78;;;2.70;99.90;;;;;;4949730;28;89117;-34
2021/12/06 07:53:22;;;;;;;71.63;51.38;;;2.60;99.90;;;;;;4949665;28;87984;-32
2021/12/06 07:55:48;;;;;;;52.58;34.78;;;2.60;99.90;;;;;;4949666;28;89279;-34
2021/12/06 07:58:15;;;;;;;54.75;35.78;;;2.60;99.90;;;;;;4955905;28;88341;-32
2021/12/06 08:00:44;;;;;;;50.00;33.65;;;2.60;99.90;;;;;;4947715;28;89013;-34
2021/12/06 08:03:11;;;;;;;56.05;36.17;;;2.70;99.90;;;;;;4948473;28;88477;-34
2021/12/06 08:05:39;;;;;;;53.17;35.75;;;2.70;99.90;;;;;;4963357;28;89372;-34
2021/12/06 08:08:16;;;;;;;48.45;34.00;;;2.60;99.90;;;;;;4967665;28;88763;-34
2021/12/06 08:10:44;;;;;;;47.20;32.85;;;2.60;99.90;;;;;;4967513;28;88992;-34
2021/12/06 08:13:13;;;;;;;58.42;36.20;;;2.60;99.90;;;;;;4968343;28;87920;-35
2021/12/06 08:15:39;;;;;;;50.92;33.88;;;2.60;99.90;;;;;;4967003;28;90070;-34
2021/12/06 08:18:05;;;;;;;49.67;32.33;;;2.60;99.90;;;;;;4967210;28;89569;-34
2021/12/06 08:20:32;;;;;;;57.72;34.03;;;2.50;99.90;;;;;;4951405;28;88078;-34
2021/12/06 08:22:57;;;;;;;50.35;34.50;;;2.60;99.90;;;;;;4948442;28;88751;-34
2021/12/06 08:25:24;;;;;;;44.75;31.48;;;2.60;99.90;;;;;;4931273;28;89475;-34
2021/12/06 08:27:49;;;;;;;49.40;31.50;;;2.60;99.90;;;;;;4947969;28;88733;-34
2021/12/06 08:30:21;;;;;;;54.70;33.92;;;2.60;99.90;;;;;;4947424;28;89386;-34
2021/12/06 08:32:51;;;;;;;46.47;32.67;;;2.60;99.90;;;;;;4947265;28;87268;-34
2021/12/06 08:35:17;;;;;;;46.13;31.20;;;2.70;99.90;;;;;;4948115;28;89023;-34
2021/12/06 08:37:44;;;;;;;38.38;27.85;;;2.70;99.90;;;;;;4947713;28;88743;-34
2021/12/06 08:40:10;;;;;;;44.17;31.30;;;2.70;99.90;;;;;;4947477;28;89167;-34
2021/12/06 08:42:36;;;;;;;46.25;31.98;;;2.70;99.90;;;;;;4959400;28;88033;-33
2021/12/06 08:45:03;;;;;;;52.88;33.58;;;2.60;99.90;;;;;;4947596;28;88724;-35
2021/12/06 08:47:28;;;;;;;44.17;31.48;;;2.50;99.90;;;;;;4947953;28;88629;-34
2021/12/06 08:49:54;;;;;;;49.35;30.52;;;2.50;99.90;;;;;;4947168;28;88859;-34
2021/12/06 08:52:19;;;;;;;42.25;30.10;;;2.50;99.90;;;;;;4948133;28;88022;-34
2021/12/06 08:54:45;;;;;;;49.80;30.02;;;2.60;99.90;;;;;;4946990;28;89661;-34
2021/12/06 08:57:11;;;;;;;49.67;31.00;;;2.60;99.90;;;;;;4947235;28;88028;-34
2021/12/06 08:59:37;;;;;;;50.60;31.17;;;2.50;99.90;;;;;;4947327;28;90050;-35
2021/12/06 09:02:03;;;;;;;45.53;28.67;;;2.50;99.90;;;;;;4947103;28;87455;-33
2021/12/06 09:04:34;;;;;;;45.28;28.30;;;2.50;99.90;;;;;;4948188;28;87808;-35
2021/12/06 09:07:00;;;;;;;45.58;30.92;;;2.50;99.90;;;;;;4947736;28;89021;-34
2021/12/06 09:09:27;;;;;;;44.65;29.42;;;2.50;99.90;;;;;;4947347;28;89339;-33
2021/12/06 09:11:55;;;;;;;51.08;32.67;;;2.60;99.90;;;;;;4946242;28;88710;-34
2021/12/06 09:14:21;;;;;;;52.97;32.17;;;2.60;99.90;;;;;;4947721;28;89104;-34
2021/12/06 09:16:47;;;;;;;59.28;35.40;;;2.60;99.90;;;;;;4947551;28;88628;-34
2021/12/06 09:19:15;;;;;;;53.83;33.00;;;2.50;99.90;;;;;;4946944;28;88538;-34
2021/12/06 09:21:43;;;;;;;60.15;33.38;;;2.50;99.90;;;;;;4948087;28;86947;-34
2021/12/06 09:24:12;;;;;;;48.38;31.15;;;2.50;99.90;;;;;;4949662;28;89510;-35
2021/12/06 09:26:38;;;;;;;51.30;33.90;;;2.50;99.90;;;;;;4950856;28;88990;-34
2021/12/06 09:29:05;;;;;;;56.15;34.40;;;2.60;99.90;;;;;;4951159;28;89112;-35
2021/12/06 09:31:31;;;;;;;53.13;34.55;;;2.50;99.90;;;;;;4950176;28;89309;-34
2021/12/06 09:33:57;;;;;;;44.22;32.13;;;2.50;99.90;;;;;;4950664;28;89380;-35
2021/12/06 09:36:24;;;;;;;49.67;32.38;;;2.60;99.90;;;;;;4933803;28;90993;-34
2021/12/06 09:38:50;;;;;;;49.17;32.25;;;2.60;99.90;;;;;;4950555;28;88665;-34
2021/12/06 09:41:21;;;;;;;60.75;38.22;;;2.60;99.90;;;;;;4950019;28;88642;-34
2021/12/06 09:43:48;;;;;;;53.85;38.03;;;2.60;99.90;;;;;;4949783;28;89269;-34
2021/12/06 09:46:15;;;;;;;59.88;40.33;;;2.70;99.90;;;;;;4950651;28;88959;-34
2021/12/06 09:48:43;;;;;;;58.50;43.30;;;2.60;99.90;;;;;;4950909;28;88440;-34
2021/12/06 09:51:17;;;;;;;61.58;42.70;;;2.60;99.90;;;;;;4949766;28;86659;-34
2021/12/06 09:53:45;;;;;;;70.57;46.53;;;2.70;99.90;;;;;;4949819;28;89052;-34
2021/12/06 09:56:14;;;;;;;64.20;43.05;;;2.70;99.90;;;;;;4950428;28;88423;-34
2021/12/06 09:58:40;;;;;;;69.60;46.85;;;2.70;99.90;;;;;;4949845;28;89609;-33
2021/12/06 10:01:28;;;;;;;71.40;47.65;;;2.70;99.90;;;;;;4950153;28;88795;-34
2021/12/06 10:03:57;;;;;;;66.85;43.78;;;2.80;99.90;;;;;;4948426;28;91915;-34
2021/12/06 10:06:23;;;;;;;62.70;40.40;;;2.70;99.90;;;;;;4950537;28;88949;-34
2021/12/06 10:08:50;;;;;;;52.47;35.17;;;2.70;99.90;;;;;;4950437;28;88867;-33
2021/12/06 10:11:19;;;;;;;46.20;31.45;;;2.80;99.90;;;;;;4949784;28;87774;-34
2021/12/06 10:13:45;;;;;;;;;;;2.80;99.90;;;;;;4949874;28;89184;-34
2021/12/06 10:16:11;;;;;;;51.22;32.55;;;2.80;99.90;;;;;;4952637;28;89237;-34
2021/12/06 10:18:38;;;;;;;48.80;32.42;;;2.70;99.90;;;;;;4949975;28;89138;-34
2021/12/06 10:21:06;;;;;;;45.37;31.20;;;2.70;99.90;;;;;;4949868;28;88386;-34
2021/12/06 10:23:36;;;;;;;50.93;33.37;;;2.70;99.90;;;;;;4949930;28;89162;-33
2021/12/06 10:26:04;;;;;;;43.88;30.60;;;2.70;99.90;;;;;;4949853;28;88941;-34
2021/12/06 10:28:30;;;;;;;38.53;27.40;;;2.70;99.90;;;;;;4949279;28;89184;-34
2021/12/06 10:31:00;;;;;;;37.72;28.20;;;2.80;99.90;;;;;;4949873;28;87262;-34
2021/12/06 10:33:30;;;;;;;49.60;31.13;;;2.80;99.90;;;;;;4949468;28;88949;-33
2021/12/06 10:35:59;;;;;;;51.15;30.77;;;2.80;99.90;;;;;;4949687;28;88463;-33
2021/12/06 10:38:28;;;;;;;47.95;30.27;;;2.80;99.90;;;;;;4950294;28;88754;-34
2021/12/06 10:41:04;;;;;;;40.72;28.30;;;2.90;99.90;;;;;;4949267;28;88802;-34
2021/12/06 10:43:30;;;;;;;50.08;31.50;;;2.80;99.90;;;;;;4948229;28;90956;-36
2021/12/06 10:45:58;;;;;;;44.20;29.40;;;2.90;99.90;;;;;;4949719;28;89673;-34
2021/12/06 10:48:29;;;;;;;44.60;28.63;;;2.90;99.90;;;;;;4951220;28;89520;-32
2021/12/06 10:50:57;;;;;;;36.85;26.45;;;2.90;99.90;;;;;;4950135;28;88598;-34
2021/12/06 10:53:33;;;;;;;38.97;26.23;;;3.00;99.90;;;;;;4949271;28;89309;-33
2021/12/06 10:55:59;;;;;;;38.35;26.38;;;3.00;99.90;;;;;;4949382;28;87980;-35
2021/12/06 10:58:29;;;;;;;35.42;24.15;;;3.00;99.90;;;;;;4950542;28;88474;-35
2021/12/06 11:01:14;;;;;;;32.13;23.70;;;3.10;99.90;;;;;;4950054;28;89463;-35
2021/12/06 11:03:48;;;;;;;37.10;24.98;;;3.10;99.90;;;;;;4949677;28;89781;-35
2021/12/06 11:06:32;;;;;;;30.77;23.20;;;3.20;99.90;;;;;;4948255;28;88201;-35
2021/12/06 11:09:04;;;;;;;31.73;23.25;;;3.20;99.90;;;;;;4953376;28;88688;-35
2021/12/06 11:11:35;;;;;;;28.55;22.40;;;3.20;99.90;;;;;;4947351;28;89224;-37
2021/12/06 11:14:13;;;;;;;31.70;22.45;;;3.20;99.90;;;;;;4948455;28;89583;-35
2021/12/06 11:16:42;;;;;;;34.13;23.92;;;3.30;99.90;;;;;;4947987;28;88211;-35
2021/12/06 11:19:15;;;;;;;33.55;23.10;;;3.30;99.90;;;;;;4949001;28;88566;-33
2021/12/06 11:22:03;;;;;;;29.38;22.40;;;3.30;99.90;;;;;;4963896;28;88218;-35
2021/12/06 11:24:45;;;;;;;33.87;24.70;;;3.30;99.90;;;;;;4948555;28;89276;-35
2021/12/06 11:27:15;;;;;;;36.58;24.08;;;3.30;99.90;;;;;;4949819;28;88751;-35
2021/12/06 11:29:46;;;;;;;33.30;25.58;;;3.20;99.90;;;;;;4948269;28;88643;-35
2021/12/06 11:32:19;;;;;;;38.33;25.17;;;3.20;99.90;;;;;;4948737;28;87287;-35
2021/12/06 11:34:49;;;;;;;43.03;28.05;;;3.30;99.90;;;;;;4948943;28;89010;-35
2021/12/06 11:37:37;;;;;;;39.38;27.15;;;3.30;99.90;;;;;;4947407;28;89761;-35
2021/12/06 11:40:08;;;;;;;43.70;28.88;;;3.30;99.90;;;;;;4948394;28;89279;-35
2021/12/06 11:42:51;;;;;;;40.10;27.98;;;3.30;99.90;;;;;;4964286;28;86656;-34
2021/12/06 11:45:34;;;;;;;40.00;26.48;;;3.30;99.90;;;;;;4948458;28;88174;-35
2021/12/06 11:48:25;;;;;;;44.25;31.60;;;3.30;99.90;;;;;;4947285;28;88732;-36
2021/12/06 11:50:55;;;;;;;41.47;26.98;;;3.40;99.90;;;;;;4948103;28;88111;-36
2021/12/06 11:53:25;;;;;;;41.22;28.05;;;3.40;99.90;;;;;;4948161;28;88548;-35
2021/12/06 11:55:54;;;;;;;34.58;22.55;;;3.50;99.90;;;;;;4948106;28;89246;-35
2021/12/06 11:58:27;;;;;;;34.83;24.65;;;3.50;99.90;;;;;;4948477;28;88939;-33
2021/12/06 12:01:12;;;;;;;35.13;26.00;;;3.50;99.90;;;;;;4948080;28;88516;-35
2021/12/06 12:03:39;;;;;;;41.42;28.20;;;3.50;99.90;;;;;;4947341;28;89380;-35
2021/12/06 12:06:25;;;;;;;32.65;25.63;;;3.50;99.90;;;;;;4948144;28;89846;-35
2021/12/06 12:09:04;;;;;;;47.55;27.33;;;3.50;99.90;;;;;;4948464;28;88394;-35
2021/12/06 12:11:30;;;;;;;36.17;27.35;;;3.50;99.90;;;;;;4947800;28;91023;-36
2021/12/06 12:13:57;;;;;;;39.13;26.88;;;3.60;99.90;;;;;;4949243;28;88505;-35
2021/12/06 12:16:24;;;;;;;43.78;28.95;;;3.60;99.90;;;;;;4947788;28;89383;-34
2021/12/06 12:18:50;;;;;;;39.08;26.05;;;3.60;99.90;;;;;;4946782;28;88774;-35
2021/12/06 12:21:16;;;;;;;33.22;25.33;;;3.60;99.90;;;;;;4948874;28;88356;-34
2021/12/06 12:23:42;;;;;;;40.22;27.23;;;3.70;99.90;;;;;;4948128;28;86905;-36
2021/12/06 12:26:15;;;;;;;38.05;26.67;;;3.70;99.90;;;;;;4948200;28;89164;-35
2021/12/06 12:28:52;;;;;;;33.90;23.08;;;3.70;99.90;;;;;;4947574;28;90054;-35
2021/12/06 12:31:21;;;;;;;35.50;25.65;;;3.60;99.90;;;;;;4948206;28;89478;-35
2021/12/06 12:33:48;;;;;;;32.50;25.02;;;3.60;99.90;;;;;;4947060;28;88148;-35
2021/12/06 12:36:18;;;;;;;42.70;26.02;;;3.60;99.90;;;;;;4948337;28;87771;-35
2021/12/06 12:38:47;;;;;;;39.15;27.48;;;3.70;99.90;;;;;;4948284;28;89642;-35
2021/12/06 12:41:17;;;;;;;44.28;26.77;;;3.70;99.90;;;;;;4947243;28;88449;-35
2021/12/06 12:43:44;;;;;;;41.35;28.33;;;3.70;99.90;;;;;;4947587;28;87591;-34
2021/12/06 12:46:22;;;;;;;32.40;26.17;;;3.70;99.90;;;;;;4947532;28;90532;-35
2021/12/06 12:48:50;;;;;;;39.85;26.45;;;3.70;99.90;;;;;;4948461;28;88679;-36
2021/12/06 12:51:20;;;;;;;41.55;28.67;;;3.80;99.90;;;;;;4948564;28;87431;-34
2021/12/06 12:54:01;;;;;;;48.40;30.85;;;3.80;99.90;;;;;;4947666;28;88878;-35
2021/12/06 12:56:34;;;;;;;40.70;29.10;;;3.80;99.90;;;;;;4947547;28;89497;-35
2021/12/06 12:59:16;;;;;;;40.35;28.92;;;3.80;99.90;;;;;;4954831;28;88373;-35
2021/12/06 13:01:45;;;;;;;41.83;28.63;;;3.80;99.90;;;;;;4953911;28;88644;-35